Swift Arrow — WAFK — position and weather

sailwx.info

Track history (hours):
 
Tides and Currents Weather Stations Pressure Air Temp Water Temp Dewpoint Dewpoint Depression Visibility Wind Speed Wind Dir Waves Ship Positions

Swift Arrow

Owner: ARROW LAUNCH SERVICE INC, Port Angeles, WA. More information available from US FCC via Universal Licensing System and Coast Guard Vessel Documentation Center.

Last reported at 2017-Dec-11 12:55 UTC. Time now 2017-Dec-13 09:24 UTC.
Position N 47°15' W 122°26'.

Type: Port tender. MMSI: 369021000.

Date/timePositionNaut miles runAvg speedWind from/ knotsBaromVisibWave heightAir tempDewpointWater temp
2017-Dec-11 12:55N 47°15' W 122°26'3 6.7
2017-Dec-11 12:30N 47°18' W 122°28'1 2.5
2017-Dec-11 12:00N 47°17' W 122°27'1 1.8
2017-Dec-11 11:28N 47°17' W 122°25'2 0.0
2017-Dec-10 00:18N 47°15' W 122°26'2 5.6
2017-Dec-10 00:00N 47°17' W 122°27'1 1.6
2017-Dec-09 23:31N 47°17' W 122°25'1 0.3
2017-Dec-09 21:07N 47°17' W 122°24'1 7.2
2017-Dec-09 21:01N 47°17' W 122°26'2 0.1
2017-Dec-08 20:27N 47°15' W 122°26'510.5
2017-Dec-08 20:00N 47°18' W 122°31'0 0.0
2017-Dec-08 18:19N 47°18' W 122°31'1 1.8
2017-Dec-08 18:00N 47°18' W 122°30'0 0.0
2017-Dec-08 17:30N 47°18' W 122°30'0 1.0
2017-Dec-08 17:00N 47°18' W 122°31'5 1.2
2017-Dec-08 13:12N 47°15' W 122°26'1 6.0
2017-Dec-08 13:01N 47°16' W 122°27'4 7.9
2017-Dec-08 12:31N 47°20' W 122°29'3 5.9
2017-Dec-08 12:00N 47°17' W 122°26'1 2.7
2017-Dec-08 11:30N 47°16' W 122°25'1 0.1
2017-Dec-08 02:17N 47°15' W 122°26'1 4.2
2017-Dec-08 02:00N 47°16' W 122°25'5 8.9
2017-Dec-08 01:30N 47°20' W 122°28'2 3.8
2017-Dec-08 01:00N 47°18' W 122°28'3 1.7
2017-Dec-07 23:09N 47°15' W 122°26'1 5.5
2017-Dec-07 23:00N 47°16' W 122°26'1 2.8
2017-Dec-07 22:30N 47°17' W 122°25'1 1.0
2017-Dec-07 22:00N 47°17' W 122°25'0 0.1
2017-Dec-07 19:49N 47°17' W 122°25'2 6.7
2017-Dec-07 19:30N 47°15' W 122°26'4 8.6
2017-Dec-07 19:00N 47°19' W 122°30'0 0.8
2017-Dec-07 18:29N 47°18' W 122°31'0 0.0
2017-Dec-07 18:00N 47°18' W 122°31'1 2.7
2017-Dec-07 17:30N 47°18' W 122°29'3 3.6
2017-Dec-07 16:38N 47°15' W 122°26'1 5.0
2017-Dec-07 16:30N 47°16' W 122°26'1 2.0
2017-Dec-07 16:00N 47°17' W 122°27'1 2.2
2017-Dec-07 15:28N 47°16' W 122°26'1 0.0
2017-Dec-06 23:41N 47°15' W 122°26'1 5.7
2017-Dec-06 23:30N 47°16' W 122°27'3 6.5
2017-Dec-06 23:00N 47°19' W 122°30'1 2.0
2017-Dec-06 22:30N 47°18' W 122°29'3 2.6
2017-Dec-06 21:17N 47°15' W 122°26'2 5.7
2017-Dec-06 21:00N 47°17' W 122°26'  
2017-Dec-03 22:25N 47°15' W 122°26'2 5.0
2017-Dec-03 22:00N 47°17' W 122°25'2 3.4
2017-Dec-03 21:30N 47°16' W 122°26'0 0.1
2017-Dec-03 20:43N 47°16' W 122°26'0 0.7
2017-Dec-03 20:30N 47°16' W 122°26'2 3.4
2017-Dec-03 19:59N 47°17' W 122°25'2 3.5
2017-Dec-03 19:30N 47°16' W 122°26'1 2.9
2017-Dec-03 19:00N 47°17' W 122°25'0 0.4
2017-Dec-03 17:55N 47°17' W 122°25'0 0.2
2017-Dec-03 17:29N 47°17' W 122°25'2 0.2
2017-Dec-03 08:00N 47°15' W 122°26'2 4.4
2017-Dec-03 07:29N 47°17' W 122°25'1 2.1
2017-Dec-03 07:00N 47°16' W 122°26'1 0.2
2017-Dec-03 01:02N 47°15' W 122°26'0 4.0
2017-Dec-03 01:00N 47°15' W 122°26'2 3.3
2017-Dec-03 00:30N 47°17' W 122°26'0 0.0
2017-Dec-03 00:00N 47°17' W 122°26'2 1.3
2017-Dec-02 22:28N 47°17' W 122°23'2 0.6
2017-Dec-02 18:46N 47°15' W 122°26'0 0.0
2017-Dec-02 18:30N 47°15' W 122°26'1 2.0
2017-Dec-02 17:59N 47°16' W 122°25'1 2.9
2017-Dec-02 17:30N 47°17' W 122°26'2 0.1
2017-Dec-02 04:16N 47°15' W 122°26'2 7.1
2017-Dec-02 04:00N 47°17' W 122°26'1 1.6
2017-Dec-02 03:30N 47°16' W 122°26'  
Track history (hours):
 
Tides and Currents Weather Stations Pressure Air Temp Water Temp Dewpoint Dewpoint Depression Visibility Wind Speed Wind Dir Waves Ship Positions

Swift Arrow

Owner: ARROW LAUNCH SERVICE INC, Port Angeles, WA. More information available from US FCC via Universal Licensing System and Coast Guard Vessel Documentation Center.

Last reported at 2017-Dec-11 12:55 UTC. Time now 2017-Dec-13 09:24 UTC.
Position N 47°15' W 122°26'.

Type: Port tender. MMSI: 369021000.

Date/timePositionNaut miles runAvg speedWind from/ knotsBaromVisibWave heightAir tempDewpointWater temp
2017-Dec-11 12:55N 47°15' W 122°26'3 6.7
2017-Dec-11 12:30N 47°18' W 122°28'1 2.5
2017-Dec-11 12:00N 47°17' W 122°27'1 1.8
2017-Dec-11 11:28N 47°17' W 122°25'2 0.0
2017-Dec-10 00:18N 47°15' W 122°26'2 5.6
2017-Dec-10 00:00N 47°17' W 122°27'1 1.6
2017-Dec-09 23:31N 47°17' W 122°25'1 0.3
2017-Dec-09 21:07N 47°17' W 122°24'1 7.2
2017-Dec-09 21:01N 47°17' W 122°26'2 0.1
2017-Dec-08 20:27N 47°15' W 122°26'510.5
2017-Dec-08 20:00N 47°18' W 122°31'0 0.0
2017-Dec-08 18:19N 47°18' W 122°31'1 1.8
2017-Dec-08 18:00N 47°18' W 122°30'0 0.0
2017-Dec-08 17:30N 47°18' W 122°30'0 1.0
2017-Dec-08 17:00N 47°18' W 122°31'5 1.2
2017-Dec-08 13:12N 47°15' W 122°26'1 6.0
2017-Dec-08 13:01N 47°16' W 122°27'4 7.9
2017-Dec-08 12:31N 47°20' W 122°29'3 5.9
2017-Dec-08 12:00N 47°17' W 122°26'1 2.7
2017-Dec-08 11:30N 47°16' W 122°25'1 0.1
2017-Dec-08 02:17N 47°15' W 122°26'1 4.2
2017-Dec-08 02:00N 47°16' W 122°25'5 8.9
2017-Dec-08 01:30N 47°20' W 122°28'2 3.8
2017-Dec-08 01:00N 47°18' W 122°28'3 1.7
2017-Dec-07 23:09N 47°15' W 122°26'1 5.5
2017-Dec-07 23:00N 47°16' W 122°26'1 2.8
2017-Dec-07 22:30N 47°17' W 122°25'1 1.0
2017-Dec-07 22:00N 47°17' W 122°25'0 0.1
2017-Dec-07 19:49N 47°17' W 122°25'2 6.7
2017-Dec-07 19:30N 47°15' W 122°26'4 8.6
2017-Dec-07 19:00N 47°19' W 122°30'0 0.8
2017-Dec-07 18:29N 47°18' W 122°31'0 0.0
2017-Dec-07 18:00N 47°18' W 122°31'1 2.7
2017-Dec-07 17:30N 47°18' W 122°29'3 3.6
2017-Dec-07 16:38N 47°15' W 122°26'1 5.0
2017-Dec-07 16:30N 47°16' W 122°26'1 2.0
2017-Dec-07 16:00N 47°17' W 122°27'1 2.2
2017-Dec-07 15:28N 47°16' W 122°26'1 0.0
2017-Dec-06 23:41N 47°15' W 122°26'1 5.7
2017-Dec-06 23:30N 47°16' W 122°27'3 6.5
2017-Dec-06 23:00N 47°19' W 122°30'1 2.0
2017-Dec-06 22:30N 47°18' W 122°29'3 2.6
2017-Dec-06 21:17N 47°15' W 122°26'2 5.7
2017-Dec-06 21:00N 47°17' W 122°26'  
2017-Dec-03 22:25N 47°15' W 122°26'2 5.0
2017-Dec-03 22:00N 47°17' W 122°25'2 3.4
2017-Dec-03 21:30N 47°16' W 122°26'0 0.1
2017-Dec-03 20:43N 47°16' W 122°26'0 0.7
2017-Dec-03 20:30N 47°16' W 122°26'2 3.4
2017-Dec-03 19:59N 47°17' W 122°25'2 3.5
2017-Dec-03 19:30N 47°16' W 122°26'1 2.9
2017-Dec-03 19:00N 47°17' W 122°25'0 0.4
2017-Dec-03 17:55N 47°17' W 122°25'0 0.2
2017-Dec-03 17:29N 47°17' W 122°25'2 0.2
2017-Dec-03 08:00N 47°15' W 122°26'2 4.4
2017-Dec-03 07:29N 47°17' W 122°25'1 2.1
2017-Dec-03 07:00N 47°16' W 122°26'1 0.2
2017-Dec-03 01:02N 47°15' W 122°26'0 4.0
2017-Dec-03 01:00N 47°15' W 122°26'2 3.3
2017-Dec-03 00:30N 47°17' W 122°26'0 0.0
2017-Dec-03 00:00N 47°17' W 122°26'2 1.3
2017-Dec-02 22:28N 47°17' W 122°23'2 0.6
2017-Dec-02 18:46N 47°15' W 122°26'0 0.0
2017-Dec-02 18:30N 47°15' W 122°26'1 2.0
2017-Dec-02 17:59N 47°16' W 122°25'1 2.9
2017-Dec-02 17:30N 47°17' W 122°26'2 0.1
2017-Dec-02 04:16N 47°15' W 122°26'2 7.1
2017-Dec-02 04:00N 47°17' W 122°26'1 1.6
2017-Dec-02 03:30N 47°16' W 122°26'  

Dump ship's entire track history